Time;durP1;ratioP1;P1;durP2;ratioP2;P2;SDS_P1;SDS_P2;PMS_P1;PMS_P2;Temp;Humidity;BMP_temperature;BMP_pressure;BME280_temperature;BME280_humidity;BME280_pressure;Samples;Min_cycle;Max_cycle;Signal;HPM_P1;HPM_P2
2023/06/29 00:00:44;;;;;;;1999.90;999.90;;;15.70;99.90;;;;;;4969532;28;20484;-74
2023/06/29 00:03:11;;;;;;;1999.90;999.90;;;15.60;99.90;;;;;;4968742;28;20443;-73
2023/06/29 00:05:40;;;;;;;1999.90;999.90;;;15.40;99.90;;;;;;4967695;28;20442;-74
2023/06/29 00:08:07;;;;;;;1999.90;999.90;;;15.50;99.90;;;;;;4969222;28;21171;-73
2023/06/29 00:10:34;;;;;;;1999.90;999.90;;;15.80;99.90;;;;;;4969664;28;20435;-73
2023/06/29 00:13:01;;;;;;;1999.90;999.90;;;15.80;99.90;;;;;;4968579;28;20439;-73
2023/06/29 00:15:28;;;;;;;1999.90;999.90;;;15.60;99.90;;;;;;4968367;28;20439;-73
2023/06/29 00:17:57;;;;;;;1999.90;999.90;;;15.50;99.90;;;;;;4968990;28;20507;-73
2023/06/29 00:20:28;;;;;;;1999.90;999.90;;;15.60;99.90;;;;;;4969363;28;20432;-73
2023/06/29 00:22:54;;;;;;;1999.90;999.90;;;15.80;99.90;;;;;;4971047;28;20914;-74
2023/06/29 00:25:21;;;;;;;1999.90;999.90;;;15.90;99.90;;;;;;4972138;28;20443;-73
2023/06/29 00:27:49;;;;;;;1999.90;999.90;;;16.00;99.90;;;;;;4972846;28;20444;-73
2023/06/29 00:30:16;;;;;;;1999.90;999.90;;;16.10;99.90;;;;;;4973483;28;20436;-74
2023/06/29 00:32:43;;;;;;;1999.90;999.90;;;16.30;99.90;;;;;;4971997;28;20515;-73
2023/06/29 00:35:09;;;;;;;1999.90;999.90;;;16.20;99.90;;;;;;4972290;28;20432;-73
2023/06/29 00:37:36;;;;;;;1999.90;999.90;;;16.10;99.90;;;;;;4972873;28;20490;-74
2023/06/29 00:40:03;;;;;;;1999.90;999.90;;;16.10;99.90;;;;;;4973446;28;20467;-73
2023/06/29 00:42:29;;;;;;;1999.90;999.90;;;16.00;99.90;;;;;;4970213;28;20946;-73
2023/06/29 00:44:57;;;;;;;1999.90;999.90;;;15.90;99.90;;;;;;4972543;28;20523;-73
2023/06/29 00:47:25;;;;;;;1999.90;999.90;;;15.90;99.90;;;;;;4972113;28;20890;-73
2023/06/29 00:49:51;;;;;;;1999.90;999.90;;;16.00;99.90;;;;;;4971644;28;20498;-72
2023/06/29 00:52:18;;;;;;;1999.90;999.90;;;16.00;99.90;;;;;;4971778;28;20918;-70
2023/06/29 00:54:45;;;;;;;1999.90;999.90;;;16.20;99.90;;;;;;4971838;28;20530;-75
2023/06/29 00:57:12;;;;;;;1999.90;999.90;;;16.40;99.90;;;;;;4971566;28;21194;-74
2023/06/29 00:59:39;;;;;;;1999.90;999.90;;;16.50;99.90;;;;;;4970655;28;20989;-72
2023/06/29 01:02:08;;;;;;;1999.90;999.90;;;16.60;99.90;;;;;;4971989;28;20498;-74
2023/06/29 01:04:35;;;;;;;1999.90;999.90;;;16.60;99.90;;;;;;4970906;28;20440;-74
2023/06/29 01:07:08;;;;;;;1999.90;999.90;;;16.60;99.90;;;;;;4971526;28;20842;-74
2023/06/29 01:09:35;;;;;;;1999.90;999.90;;;16.80;99.90;;;;;;4972478;28;20444;-73
2023/06/29 01:12:03;;;;;;;1999.90;999.90;;;16.80;99.90;;;;;;4972091;28;20498;-70
2023/06/29 01:14:32;;;;;;;1999.90;999.90;;;16.90;99.90;;;;;;4970962;28;20494;-73
2023/06/29 01:17:00;;;;;;;1999.90;999.90;;;17.00;99.90;;;;;;4971590;28;20478;-73
2023/06/29 01:19:31;;;;;;;1999.90;999.90;;;17.00;99.90;;;;;;4971481;28;20445;-73
2023/06/29 01:22:03;;;;;;;1999.90;999.90;;;17.10;99.90;;;;;;4971765;28;20439;-73
2023/06/29 01:24:39;;;;;;;1999.90;999.90;;;16.90;99.90;;;;;;4969138;28;20513;-73
2023/06/29 01:27:07;;;;;;;1999.90;999.90;;;16.90;99.90;;;;;;4971977;28;20432;-73
2023/06/29 01:29:34;;;;;;;1999.90;999.90;;;16.90;99.90;;;;;;4972443;28;20495;-73
2023/06/29 01:32:03;;;;;;;1999.90;999.90;;;16.80;99.90;;;;;;4970734;28;20448;-73
2023/06/29 01:34:32;;;;;;;1999.90;999.90;;;16.60;99.90;;;;;;4970415;28;20527;-73
2023/06/29 01:37:03;;;;;;;1999.90;999.90;;;16.70;99.90;;;;;;4971927;28;20443;-73
2023/06/29 01:39:32;;;;;;;1999.90;999.90;;;16.90;99.90;;;;;;4971282;28;20495;-74
2023/06/29 01:42:01;;;;;;;1999.90;999.90;;;17.10;99.90;;;;;;4970446;28;20924;-73
2023/06/29 01:44:28;;;;;;;1999.90;999.90;;;17.20;99.90;;;;;;4970658;28;20443;-73
2023/06/29 01:46:55;;;;;;;1999.90;999.90;;;17.30;99.90;;;;;;4971893;28;20432;-74
2023/06/29 01:49:22;;;;;;;1999.90;999.90;;;17.40;99.90;;;;;;4971863;28;20444;-74
2023/06/29 01:51:49;;;;;;;1999.90;999.90;;;17.70;99.90;;;;;;4970331;28;20439;-73
2023/06/29 01:54:16;;;;;;;1999.90;999.90;;;17.60;99.90;;;;;;4969323;28;20659;-72
2023/06/29 01:56:42;;;;;;;1999.90;999.90;;;17.70;99.90;;;;;;4970830;28;20479;-74
2023/06/29 01:59:10;;;;;;;1999.90;999.90;;;17.80;99.90;;;;;;4970734;28;20616;-74
2023/06/29 02:01:37;;;;;;;1999.90;999.90;;;17.80;99.90;;;;;;4971614;28;20447;-73
2023/06/29 02:04:05;;;;;;;1999.90;999.90;;;17.90;99.90;;;;;;4969284;28;20874;-73
2023/06/29 02:06:31;;;;;;;1999.90;999.90;;;17.90;99.90;;;;;;4970853;28;20436;-74
2023/06/29 02:08:58;;;;;;;1999.90;999.90;;;17.90;99.90;;;;;;4970535;28;20503;-73
2023/06/29 02:11:24;;;;;;;1999.90;999.90;;;18.00;99.90;;;;;;4970489;28;20846;-73
2023/06/29 02:13:51;;;;;;;1999.90;999.90;;;17.90;99.90;;;;;;4969279;28;21005;-72
2023/06/29 02:16:19;;;;;;;1999.90;999.90;;;17.90;99.90;;;;;;4969977;28;20436;-73
2023/06/29 02:18:46;;;;;;;1999.90;999.90;;;17.90;99.90;;;;;;4971386;28;20440;-73
2023/06/29 02:21:13;;;;;;;1999.90;999.90;;;17.70;99.90;;;;;;4967709;28;20892;-72
2023/06/29 02:23:40;;;;;;;1999.90;999.90;;;17.50;99.90;;;;;;4969630;28;20458;-73
2023/06/29 02:26:07;;;;;;;1999.90;999.90;;;17.30;99.90;;;;;;4969841;28;20435;-73
2023/06/29 02:28:34;;;;;;;1999.90;999.90;;;17.40;99.90;;;;;;4969952;28;20444;-73
2023/06/29 02:31:00;;;;;;;1999.90;999.90;;;17.40;99.90;;;;;;4970145;28;20444;-73
2023/06/29 02:33:28;;;;;;;1999.90;999.90;;;17.30;99.90;;;;;;4969071;28;20499;-73
2023/06/29 02:35:55;;;;;;;1999.90;999.90;;;17.10;99.90;;;;;;4968424;28;20523;-73
2023/06/29 02:38:22;;;;;;;1999.90;999.90;;;17.10;99.90;;;;;;4970834;28;20443;-73
2023/06/29 02:40:48;;;;;;;1999.90;999.90;;;17.20;99.90;;;;;;4969888;28;20915;-72
2023/06/29 02:43:16;;;;;;;1999.90;999.90;;;17.50;99.90;;;;;;4969223;28;20962;-73
2023/06/29 02:45:42;;;;;;;1999.90;999.90;;;17.40;99.90;;;;;;4968955;28;20440;-73
2023/06/29 02:48:09;;;;;;;1999.90;999.90;;;17.70;99.90;;;;;;4970964;28;20439;-73
2023/06/29 02:50:37;;;;;;;1999.90;999.90;;;17.30;99.90;;;;;;4968319;28;20444;-74
2023/06/29 02:53:04;;;;;;;1999.90;999.90;;;17.40;99.90;;;;;;4967223;28;20527;-73
2023/06/29 02:55:32;;;;;;;1999.90;999.90;;;17.40;99.90;;;;;;4969529;28;20447;-73
2023/06/29 02:57:58;;;;;;;1999.90;999.90;;;17.60;99.90;;;;;;4970382;28;20806;-73
2023/06/29 03:00:25;;;;;;;1999.90;999.90;;;17.60;99.90;;;;;;4969620;28;20452;-73
2023/06/29 03:02:52;;;;;;;1999.90;999.90;;;17.60;99.90;;;;;;4968991;28;20440;-73
2023/06/29 03:05:19;;;;;;;1999.90;999.90;;;17.70;99.90;;;;;;4966988;28;20440;-73
2023/06/29 03:07:47;;;;;;;1999.90;999.90;;;18.00;99.90;;;;;;4965974;28;20846;-73
2023/06/29 03:10:13;;;;;;;1999.90;999.90;;;17.90;99.90;;;;;;4966755;28;20918;-71
2023/06/29 03:12:41;;;;;;;1999.90;999.90;;;17.90;99.90;;;;;;4964566;28;20431;-73
2023/06/29 03:15:08;;;;;;;1999.90;999.90;;;17.90;99.90;;;;;;4967279;28;20436;-73
2023/06/29 03:17:35;;;;;;;1999.90;999.90;;;17.80;99.90;;;;;;4966806;28;20443;-73
2023/06/29 03:20:02;;;;;;;1999.90;999.90;;;17.70;99.90;;;;;;4968854;28;20538;-73
2023/06/29 03:22:28;;;;;;;1999.90;999.90;;;17.70;99.90;;;;;;4968739;28;20447;-74
2023/06/29 03:24:56;;;;;;;1999.90;999.90;;;17.80;99.90;;;;;;4968717;28;20490;-73
2023/06/29 03:27:23;;;;;;;1999.90;999.90;;;17.90;99.90;;;;;;4968957;28;20435;-73
2023/06/29 03:29:52;;;;;;;1999.90;999.90;;;17.90;99.90;;;;;;4967489;28;20834;-71
2023/06/29 03:32:18;;;;;;;1999.90;999.90;;;17.90;99.90;;;;;;4969008;28;20440;-73
2023/06/29 03:34:45;;;;;;;1999.90;999.90;;;18.00;99.90;;;;;;4968689;28;20990;-74
2023/06/29 03:37:12;;;;;;;1999.90;999.90;;;18.30;99.90;;;;;;4967906;28;20499;-73
2023/06/29 03:39:38;;;;;;;1999.90;999.90;;;18.50;99.90;;;;;;4970110;28;20509;-73
2023/06/29 03:42:07;;;;;;;1999.90;999.90;;;18.40;99.90;;;;;;4969070;28;20494;-73
2023/06/29 03:44:34;;;;;;;1999.90;999.90;;;18.60;99.90;;;;;;4968464;28;20499;-71
2023/06/29 03:47:00;;;;;;;1999.90;999.90;;;18.80;99.90;;;;;;4969253;28;20439;-73
2023/06/29 03:49:27;;;;;;;1999.90;999.90;;;18.60;99.90;;;;;;4969783;28;20440;-74
2023/06/29 03:51:54;;;;;;;1999.90;999.90;;;18.80;99.90;;;;;;4969095;28;20448;-73
2023/06/29 03:54:20;;;;;;;1999.90;999.90;;;19.00;99.90;;;;;;4968163;28;20581;-73
2023/06/29 03:56:47;;;;;;;1999.90;999.90;;;18.70;99.90;;;;;;4969160;28;20859;-73
2023/06/29 03:59:15;;;;;;;1999.90;999.90;;;18.80;99.90;;;;;;4964336;28;20442;-73
2023/06/29 04:01:41;;;;;;;1999.90;999.90;;;18.80;99.90;;;;;;4968424;28;20508;-72
2023/06/29 04:04:08;;;;;;;1999.90;999.90;;;19.10;99.90;;;;;;4969059;28;20858;-73
2023/06/29 04:06:35;;;;;;;1999.90;999.90;;;19.10;99.90;;;;;;4966356;28;20926;-73
2023/06/29 04:09:01;;;;;;;1999.90;999.90;;;19.00;99.90;;;;;;4966271;28;20858;-73
2023/06/29 04:11:29;;;;;;;1999.90;999.90;;;18.90;99.90;;;;;;4968900;28;20447;-73
2023/06/29 04:13:55;;;;;;;1999.90;999.90;;;19.10;99.90;;;;;;4968645;28;20440;-73
2023/06/29 04:16:23;;;;;;;1999.90;999.90;;;19.30;99.90;;;;;;4968728;28;20487;-73
2023/06/29 04:18:50;;;;;;;1999.90;999.90;;;19.20;99.90;;;;;;4968994;28;20987;-71
2023/06/29 04:21:17;;;;;;;1999.90;999.90;;;18.90;99.90;;;;;;4967954;28;20443;-73
2023/06/29 04:23:43;;;;;;;1999.90;999.90;;;18.80;99.90;;;;;;4968467;28;20443;-73
2023/06/29 04:26:10;;;;;;;1999.90;999.90;;;18.90;99.90;;;;;;4967661;28;20463;-71
2023/06/29 04:28:37;;;;;;;1999.90;999.90;;;18.90;99.90;;;;;;4969456;28;20472;-73
2023/06/29 04:31:03;;;;;;;1999.90;999.90;;;19.20;99.90;;;;;;4968580;28;20527;-71
2023/06/29 04:33:31;;;;;;;1999.90;999.90;;;18.70;99.90;;;;;;4968305;28;20432;-72
2023/06/29 04:35:58;;;;;;;1999.90;999.90;;;18.80;99.90;;;;;;4968365;28;20439;-73
2023/06/29 04:38:26;;;;;;;1999.90;999.90;;;18.90;99.90;;;;;;4968520;28;20494;-75
2023/06/29 04:40:59;;;;;;;1999.90;999.90;;;18.80;99.90;;;;;;4968933;28;20477;-72
2023/06/29 04:43:26;;;;;;;1999.90;999.90;;;18.60;99.90;;;;;;4968359;28;20523;-70
2023/06/29 04:45:53;;;;;;;1999.90;999.90;;;18.30;99.90;;;;;;4967785;28;20444;-73
2023/06/29 04:48:28;;;;;;;1999.90;999.90;;;18.30;99.90;;;;;;4967110;28;20440;-73
2023/06/29 04:51:02;;;;;;;1999.90;999.90;;;18.60;99.90;;;;;;4969218;28;20436;-72
2023/06/29 04:53:28;;;;;;;1999.90;999.90;;;18.90;99.90;;;;;;4967541;28;20440;-71
2023/06/29 04:55:55;;;;;;;1999.90;999.90;;;18.70;99.90;;;;;;4967840;28;20452;-72
2023/06/29 04:58:22;;;;;;;1999.90;999.90;;;18.70;99.90;;;;;;4968795;28;20558;-72
2023/06/29 05:00:48;;;;;;;1999.90;999.90;;;18.80;99.90;;;;;;4969142;28;20534;-71
2023/06/29 05:03:15;;;;;;;1999.90;999.90;;;18.90;99.90;;;;;;4966388;28;20495;-73
2023/06/29 05:05:42;;;;;;;1999.90;999.90;;;19.10;99.90;;;;;;4968847;28;20437;-72
2023/06/29 05:08:10;;;;;;;1999.90;999.90;;;18.90;99.90;;;;;;4969119;28;20444;-71
2023/06/29 05:10:37;;;;;;;1999.90;999.90;;;19.10;99.90;;;;;;4972534;28;20439;-72
2023/06/29 05:13:04;;;;;;;1999.90;999.90;;;19.30;99.90;;;;;;4970351;28;20443;-73
2023/06/29 05:15:31;;;;;;;1999.90;999.90;;;19.40;99.90;;;;;;4972481;28;20865;-72
2023/06/29 05:17:58;;;;;;;1999.90;999.90;;;19.50;99.90;;;;;;4971110;28;20919;-71
2023/06/29 05:20:24;;;;;;;1999.90;999.90;;;19.50;99.90;;;;;;4972542;28;20440;-73
2023/06/29 05:22:51;;;;;;;1999.90;999.90;;;19.60;99.90;;;;;;4970688;28;20443;-72
2023/06/29 05:25:19;;;;;;;1999.90;999.90;;;19.90;99.90;;;;;;4972477;28;20546;-73
2023/06/29 05:27:46;;;;;;;1999.90;999.90;;;20.00;99.90;;;;;;4971238;28;20839;-72
2023/06/29 05:30:14;;;;;;;1999.90;999.90;;;20.10;99.90;;;;;;4969985;28;20439;-73
2023/06/29 05:32:40;;;;;;;1999.90;999.90;;;20.40;99.90;;;;;;4971112;28;20563;-72
2023/06/29 05:35:07;;;;;;;1999.90;999.90;;;20.60;99.90;;;;;;4971805;28;20449;-73
2023/06/29 05:37:34;;;;;;;1999.90;999.90;;;20.60;99.90;;;;;;4970225;28;20910;-73
2023/06/29 05:40:01;;;;;;;1999.90;999.90;;;20.70;99.90;;;;;;4970187;28;20444;-73
2023/06/29 05:42:29;;;;;;;1999.90;999.90;;;20.80;99.90;;;;;;4969108;28;20447;-73
2023/06/29 05:44:55;;;;;;;1999.90;999.90;;;21.10;99.90;;;;;;4969501;28;20520;-73
2023/06/29 05:47:22;;;;;;;1999.90;999.90;;;21.00;99.90;;;;;;4969724;28;20818;-74
2023/06/29 05:49:49;;;;;;;1999.90;999.90;;;21.10;99.90;;;;;;4968962;28;20807;-71
2023/06/29 05:52:15;;;;;;;1999.90;999.90;;;21.10;99.90;;;;;;4966388;28;20502;-71
2023/06/29 05:54:42;;;;;;;1999.90;999.90;;;21.30;99.90;;;;;;4970993;28;20468;-72
2023/06/29 05:57:08;;;;;;;1999.90;999.90;;;21.40;99.90;;;;;;4970857;28;20502;-73
2023/06/29 05:59:36;;;;;;;1999.90;999.90;;;21.70;99.90;;;;;;4976689;28;20434;-70
2023/06/29 06:02:03;;;;;;;1999.90;999.90;;;21.70;99.90;;;;;;4972302;28;20444;-73
2023/06/29 06:04:30;;;;;;;1999.90;999.90;;;21.80;99.90;;;;;;4971368;28;20440;-72
2023/06/29 06:06:57;;;;;;;1999.90;999.90;;;21.90;99.90;;;;;;4971805;28;20519;-73
2023/06/29 06:09:23;;;;;;;1999.90;999.90;;;22.00;99.90;;;;;;4971991;28;20428;-71
2023/06/29 06:11:50;;;;;;;1999.90;999.90;;;22.10;99.90;;;;;;4970674;28;20564;-72
2023/06/29 06:14:16;;;;;;;1999.90;999.90;;;22.30;99.90;;;;;;4969620;28;20455;-72
2023/06/29 06:16:44;;;;;;;1999.90;999.90;;;22.70;99.90;;;;;;4969552;28;20855;-72
2023/06/29 06:19:11;;;;;;;1999.90;999.90;;;22.50;99.90;;;;;;4971221;28;20965;-71
2023/06/29 06:21:38;;;;;;;1999.90;999.90;;;22.50;99.90;;;;;;4972287;28;20451;-71
2023/06/29 06:24:05;;;;;;;1999.90;999.90;;;22.40;99.90;;;;;;4972239;28;20914;-73
2023/06/29 06:26:31;;;;;;;1999.90;999.90;;;22.60;99.90;;;;;;4973058;28;20835;-73
2023/06/29 06:28:58;;;;;;;1999.90;999.90;;;22.90;99.90;;;;;;4973006;28;20435;-72
2023/06/29 06:31:25;;;;;;;1999.90;999.90;;;23.00;99.90;;;;;;4970540;28;20439;-72
2023/06/29 06:33:56;;;;;;;1999.90;999.90;;;23.20;99.90;;;;;;4970962;28;20495;-73
2023/06/29 06:36:23;;;;;;;1999.90;999.90;;;23.00;99.90;;;;;;4997880;23;20439;-73
2023/06/29 06:38:50;;;;;;;1999.90;999.90;;;23.20;99.90;;;;;;4970300;28;20846;-73
2023/06/29 06:41:17;;;;;;;1999.90;999.90;;;23.20;99.90;;;;;;4968757;28;20443;-70
2023/06/29 06:43:43;;;;;;;1999.90;999.90;;;23.30;99.90;;;;;;4970866;28;20487;-73
2023/06/29 06:46:10;;;;;;;1999.90;999.90;;;23.30;99.90;;;;;;4968648;28;20436;-73
2023/06/29 06:48:37;;;;;;;1999.90;999.90;;;23.40;99.90;;;;;;4968452;28;20432;-73
2023/06/29 06:51:05;;;;;;;1999.90;999.90;;;23.50;99.90;;;;;;4968791;28;20474;-73
2023/06/29 06:53:32;;;;;;;1999.90;999.90;;;23.40;99.90;;;;;;4967935;28;20887;-75
2023/06/29 06:55:58;;;;;;;1999.90;999.90;;;23.70;99.90;;;;;;4968891;28;20432;-71
2023/06/29 06:58:25;;;;;;;1999.90;999.90;;;23.70;99.90;;;;;;4967014;28;20490;-73
2023/06/29 07:00:52;;;;;;;1999.90;999.90;;;23.60;99.90;;;;;;4969598;28;20977;-72
2023/06/29 07:03:19;;;;;;;1999.90;999.90;;;23.50;99.90;;;;;;4969519;28;20436;-74
2023/06/29 07:05:46;;;;;;;1999.90;999.90;;;23.40;99.90;;;;;;4969081;28;20527;-72
2023/06/29 07:08:14;;;;;;;1999.90;999.90;;;23.30;99.90;;;;;;4970448;28;20443;-74
2023/06/29 07:10:41;;;;;;;1999.90;999.90;;;23.20;99.90;;;;;;4968869;28;20443;-74
2023/06/29 07:13:07;;;;;;;1999.90;999.90;;;23.30;99.90;;;;;;4969776;28;20487;-73
2023/06/29 07:15:34;;;;;;;1999.90;999.90;;;23.20;99.90;;;;;;4964351;28;20448;-71
2023/06/29 07:18:01;;;;;;;1999.90;999.90;;;23.20;99.90;;;;;;4968452;28;20436;-73
2023/06/29 07:20:27;;;;;;;1999.90;999.90;;;23.30;99.90;;;;;;4969347;28;20475;-74
2023/06/29 07:22:54;;;;;;;1999.90;999.90;;;23.50;99.90;;;;;;4971458;28;20479;-73
2023/06/29 07:25:22;;;;;;;1999.90;999.90;;;24.20;99.90;;;;;;4972371;28;20420;-72
2023/06/29 07:27:49;;;;;;;1999.90;999.90;;;24.50;99.90;;;;;;4972206;28;20494;-73
2023/06/29 07:30:16;;;;;;;1999.90;999.90;;;24.80;99.90;;;;;;4970667;28;20859;-73
2023/06/29 07:32:43;;;;;;;1999.90;999.90;;;25.60;99.90;;;;;;4970565;28;20443;-74
2023/06/29 07:35:10;;;;;;;1999.90;999.90;;;25.60;99.00;;;;;;4971637;28;20457;-73
2023/06/29 07:37:37;;;;;;;1999.90;999.90;;;25.70;99.50;;;;;;4972115;28;20415;-73
2023/06/29 07:40:06;;;;;;;1999.90;999.90;;;25.90;99.40;;;;;;4971261;28;20512;-72
2023/06/29 07:42:34;;;;;;;1999.90;999.90;;;26.30;98.40;;;;;;4971197;28;20487;-72
2023/06/29 07:45:00;;;;;;;1999.90;999.90;;;26.10;98.70;;;;;;4972175;28;20475;-73
2023/06/29 07:47:27;;;;;;;1999.90;999.90;;;26.00;98.70;;;;;;4971494;28;20491;-74
2023/06/29 07:49:53;;;;;;;1999.90;999.90;;;25.60;99.00;;;;;;4970598;28;20440;-73
2023/06/29 07:52:22;;;;;;;1999.90;999.90;;;25.30;99.90;;;;;;4971207;28;20491;-73
2023/06/29 07:54:49;;;;;;;1999.90;999.90;;;25.30;99.90;;;;;;4971859;28;20896;-73
2023/06/29 07:57:15;;;;;;;1999.90;999.90;;;25.70;99.40;;;;;;4971796;28;20474;-74
2023/06/29 07:59:44;;;;;;;1999.90;999.90;;;25.20;99.90;;;;;;4970956;28;20444;-71
2023/06/29 08:02:10;;;;;;;1999.90;999.90;;;25.30;99.60;;;;;;4970949;28;20899;-75
2023/06/29 08:04:37;;;;;;;1999.90;999.90;;;25.30;99.80;;;;;;4964485;28;20494;-71
2023/06/29 08:07:04;;;;;;;1999.90;999.90;;;25.70;99.10;;;;;;4969055;28;20443;-72
2023/06/29 08:09:30;;;;;;;1999.90;999.90;;;25.80;98.70;;;;;;4968306;28;20498;-73
2023/06/29 08:11:58;;;;;;;1999.90;999.90;;;26.10;98.40;;;;;;4969364;28;20440;-73
2023/06/29 08:14:24;;;;;;;1999.90;999.90;;;26.20;98.30;;;;;;4968308;28;20933;-74
2023/06/29 08:16:52;;;;;;;1999.90;999.90;;;26.20;98.50;;;;;;4964986;28;20966;-73
2023/06/29 08:19:19;;;;;;;1999.90;999.90;;;26.30;98.50;;;;;;4964818;28;20816;-74
2023/06/29 08:21:47;;;;;;;1999.90;999.90;;;26.50;98.50;;;;;;4970819;28;20961;-71
2023/06/29 08:24:14;;;;;;;1999.90;999.90;;;26.20;98.90;;;;;;4958896;28;20458;-74
2023/06/29 08:26:41;;;;;;;1999.90;999.90;;;26.20;98.30;;;;;;4967405;28;20804;-76
2023/06/29 08:29:07;;;;;;;1999.90;999.90;;;26.30;98.40;;;;;;4966262;28;20536;-76
2023/06/29 08:31:34;;;;;;;1999.90;999.90;;;26.40;98.00;;;;;;4968967;28;20843;-73
2023/06/29 08:34:02;;;;;;;1999.90;999.90;;;26.60;98.00;;;;;;4967966;28;20812;-71
2023/06/29 08:36:29;;;;;;;1999.90;999.90;;;26.70;97.80;;;;;;4969097;28;20448;-73
2023/06/29 08:38:56;;;;;;;1999.90;999.90;;;26.90;98.10;;;;;;4967057;28;20432;-74
2023/06/29 08:41:23;;;;;;;1999.90;999.90;;;27.30;97.30;;;;;;4963469;28;20439;-72
2023/06/29 08:43:49;;;;;;;1999.90;999.90;;;27.20;96.60;;;;;;4968590;28;20454;-71
2023/06/29 08:46:17;;;;;;;1999.90;999.90;;;27.10;96.90;;;;;;4972567;28;21090;-73
2023/06/29 08:48:45;;;;;;;1999.90;999.90;;;27.00;97.20;;;;;;4972234;28;20451;-69
2023/06/29 08:51:19;;;;;;;1999.90;999.90;;;27.20;97.20;;;;;;4972923;28;20490;-71
2023/06/29 08:53:46;;;;;;;1999.90;999.90;;;27.00;96.80;;;;;;4971786;28;20440;-73
2023/06/29 08:56:14;;;;;;;1999.90;999.90;;;26.70;97.30;;;;;;4973004;28;20435;-73
2023/06/29 08:58:40;;;;;;;1999.90;999.90;;;26.50;98.40;;;;;;4972987;28;20918;-73
2023/06/29 09:01:08;;;;;;;1999.90;999.90;;;26.90;97.60;;;;;;4970916;28;20440;-73
2023/06/29 09:03:36;;;;;;;1999.90;999.90;;;27.00;97.30;;;;;;4969680;28;20448;-72
2023/06/29 09:06:03;;;;;;;1999.90;999.90;;;27.10;98.40;;;;;;4970273;28;20519;-71
2023/06/29 09:08:34;;;;;;;1999.90;999.90;;;27.30;97.40;;;;;;4972910;28;20486;-73
2023/06/29 09:11:00;;;;;;;1999.90;999.90;;;27.40;96.70;;;;;;4972406;28;20440;-72
2023/06/29 09:13:27;;;;;;;1999.90;999.90;;;27.60;97.10;;;;;;4969211;28;20475;-73
2023/06/29 09:15:54;;;;;;;1999.90;999.90;;;28.40;96.50;;;;;;4972008;28;20529;-73
2023/06/29 09:18:22;;;;;;;1999.90;999.90;;;28.50;96.00;;;;;;4972048;28;20432;-73
2023/06/29 09:20:50;;;;;;;1999.90;999.90;;;27.90;96.50;;;;;;4972497;28;20523;-73
2023/06/29 09:23:17;;;;;;;1999.90;999.90;;;28.10;96.40;;;;;;4969046;28;20866;-74
2023/06/29 09:25:45;;;;;;;1999.90;999.90;;;28.40;95.60;;;;;;4972395;28;20454;-73
2023/06/29 09:28:13;;;;;;;1999.90;999.90;;;28.50;96.50;;;;;;4972166;28;20444;-70
2023/06/29 09:30:41;;;;;;;1999.90;999.90;;;28.20;96.00;;;;;;4972039;28;20439;-73
2023/06/29 09:33:09;;;;;;;1999.90;999.90;;;27.80;97.00;;;;;;4971198;28;20440;-73
2023/06/29 09:35:38;;;;;;;1999.90;999.90;;;27.90;96.90;;;;;;4970087;28;20444;-73
2023/06/29 09:38:05;;;;;;;1999.90;999.90;;;27.70;97.20;;;;;;4972151;28;20866;-73
2023/06/29 09:40:32;;;;;;;1999.90;999.90;;;27.90;96.90;;;;;;4972021;28;20922;-74
2023/06/29 09:43:05;;;;;;;1999.90;999.90;;;28.00;97.50;;;;;;4970381;28;20435;-73
2023/06/29 09:45:32;;;;;;;1999.90;999.90;;;28.00;97.60;;;;;;4970577;28;20443;-71
2023/06/29 09:47:59;;;;;;;1999.90;999.90;;;28.40;97.10;;;;;;4971636;28;20922;-74
2023/06/29 09:50:26;;;;;;;1999.90;999.90;;;28.20;97.30;;;;;;4972716;28;20914;-73
2023/06/29 09:52:55;;;;;;;1999.90;999.90;;;28.60;97.00;;;;;;4972840;28;20428;-73
2023/06/29 09:55:29;;;;;;;1999.90;999.90;;;27.80;97.40;;;;;;4972458;28;20435;-73
2023/06/29 09:57:58;;;;;;;1999.90;999.90;;;27.60;97.00;;;;;;4973813;28;20490;-73
2023/06/29 10:00:27;;;;;;;1999.90;999.90;;;27.80;97.30;;;;;;4973395;28;20420;-75
2023/06/29 10:02:54;;;;;;;1999.90;999.90;;;28.10;97.50;;;;;;4973355;28;20435;-73
2023/06/29 10:05:21;;;;;;;1999.90;999.90;;;28.20;97.50;;;;;;4970622;28;20467;-73
2023/06/29 10:07:50;;;;;;;1999.90;999.90;;;28.20;97.40;;;;;;4972902;28;20439;-73
2023/06/29 10:10:18;;;;;;;1999.90;999.90;;;28.10;97.70;;;;;;4954404;29;20418;-73
2023/06/29 10:12:50;;;;;;;1999.90;999.90;;;27.90;97.80;;;;;;4953498;29;20952;-75
2023/06/29 10:15:22;;;;;;;1999.90;999.90;;;28.00;97.50;;;;;;4954203;28;20773;-74
2023/06/29 10:17:56;;;;;;;1999.90;999.90;;;27.90;98.00;;;;;;4971456;28;20443;-74
2023/06/29 10:20:26;;;;;;;1999.90;999.90;;;28.10;98.80;;;;;;4954548;29;20422;-73
2023/06/29 10:22:56;;;;;;;1999.90;999.90;;;28.40;97.00;;;;;;4953499;29;20531;-73
2023/06/29 10:25:24;;;;;;;1999.90;999.90;;;28.30;96.50;;;;;;4953961;28;20422;-74
2023/06/29 10:27:54;;;;;;;1999.90;999.90;;;28.10;96.90;;;;;;4954743;28;20468;-72
2023/06/29 10:30:21;;;;;;;1999.90;999.90;;;27.90;97.20;;;;;;4958419;28;20419;-73
2023/06/29 10:32:51;;;;;;;1999.90;999.90;;;26.70;98.90;;;;;;4971678;28;20491;-73
2023/06/29 10:35:18;;;;;;;1999.90;999.90;;;26.40;99.80;;;;;;4965437;28;20459;-73
2023/06/29 10:37:46;;;;;;;1999.90;999.90;;;26.60;99.40;;;;;;4973257;28;20428;-74
2023/06/29 10:40:14;;;;;;;1999.90;999.90;;;26.70;99.80;;;;;;4970875;28;20440;-75
2023/06/29 10:42:58;;;;;;;1999.90;999.90;;;26.90;99.90;;;;;;4969809;28;20447;-73
2023/06/29 10:45:34;;;;;;;1999.90;999.90;;;27.30;99.40;;;;;;4967856;28;20428;-75
2023/06/29 10:48:08;;;;;;;1999.90;999.90;;;27.00;99.70;;;;;;4967655;28;20435;-74
2023/06/29 10:50:40;;;;;;;1999.90;999.90;;;27.20;99.80;;;;;;4970557;28;20440;-74
2023/06/29 10:53:10;;;;;;;1999.90;999.90;;;27.40;98.90;;;;;;4971126;28;20439;-73
2023/06/29 10:55:42;;;;;;;1999.90;999.90;;;28.00;98.40;;;;;;4972575;28;20922;-73
2023/06/29 10:58:20;;;;;;;1999.90;999.90;;;28.10;98.50;;;;;;4972582;28;21002;-73
2023/06/29 11:00:47;;;;;;;1999.90;999.90;;;28.10;98.20;;;;;;4972907;28;20424;-73
2023/06/29 11:03:16;;;;;;;1999.90;999.90;;;28.00;98.10;;;;;;4972023;28;20495;-74
2023/06/29 11:05:43;;;;;;;1999.90;999.90;;;27.60;98.40;;;;;;4971409;28;20918;-73
2023/06/29 11:08:10;;;;;;;1999.90;999.90;;;27.40;99.10;;;;;;4972451;28;20503;-73
2023/06/29 11:10:37;;;;;;;1999.90;999.90;;;27.50;99.80;;;;;;4972792;28;20423;-73
2023/06/29 11:13:09;;;;;;;1999.90;999.90;;;27.20;99.30;;;;;;4969843;28;20456;-73
2023/06/29 11:15:36;;;;;;;1999.90;999.90;;;27.10;99.90;;;;;;4969437;28;20440;-72
2023/06/29 11:18:05;;;;;;;1999.90;999.90;;;27.00;99.90;;;;;;4968892;28;20486;-73
2023/06/29 11:20:34;;;;;;;1999.90;999.90;;;27.00;99.90;;;;;;4970063;28;20531;-73
2023/06/29 11:23:01;;;;;;;1999.90;999.90;;;26.90;99.90;;;;;;4969694;28;20436;-73
2023/06/29 11:25:29;;;;;;;1999.90;999.90;;;26.80;99.90;;;;;;4970109;28;20440;-73
2023/06/29 11:27:56;;;;;;;1999.90;999.90;;;26.30;99.90;;;;;;4966534;28;20518;-73
2023/06/29 11:30:22;;;;;;;1999.90;999.90;;;26.40;99.90;;;;;;4967347;28;20443;-73
2023/06/29 11:32:51;;;;;;;1999.90;999.90;;;26.60;99.90;;;;;;4969519;28;20495;-75
2023/06/29 11:35:21;;;;;;;1999.90;999.90;;;26.80;99.90;;;;;;4969187;28;20454;-73
2023/06/29 11:37:50;;;;;;;1999.90;999.90;;;26.60;99.90;;;;;;4966516;28;20504;-72
2023/06/29 11:40:18;;;;;;;1999.90;999.90;;;26.40;99.90;;;;;;4965053;28;20531;-73
2023/06/29 11:42:45;;;;;;;1999.90;999.90;;;26.30;99.90;;;;;;4969003;28;20501;-74
2023/06/29 11:45:13;;;;;;;1999.90;999.90;;;26.40;99.90;;;;;;4969712;28;20930;-73
2023/06/29 11:47:41;;;;;;;1999.90;999.90;;;26.50;99.90;;;;;;4969614;28;20472;-75
2023/06/29 11:50:10;;;;;;;1999.90;999.90;;;26.50;99.90;;;;;;4967515;28;20935;-73
2023/06/29 11:52:39;;;;;;;1999.90;999.90;;;26.10;99.90;;;;;;4969159;28;20440;-70
2023/06/29 11:55:08;;;;;;;1999.90;999.90;;;26.00;99.90;;;;;;4970128;28;20551;-74
2023/06/29 11:57:36;;;;;;;1999.90;999.90;;;25.90;99.90;;;;;;4969376;28;20440;-74
2023/06/29 12:00:06;;;;;;;1999.90;999.90;;;25.60;99.90;;;;;;4968697;28;20918;-72